Spirit Lake, Idaho
Current Conditions -  °F | °C
As of 2:55 PM on Friday 28 Nov 2014 (Local Time) from KCOE Reporting Station
Overcast Overcast  
Wind Chill: 52°   Ceiling: 4800
Heat Index: 52°   Visibility: 10mi
Dew Point: 39°   Wind: 18mph
Humidity: 62%   Direction: 200°SSW
Pressure: 29.34"   Gusts: 28mph
Location:  47.97°N, 116.87°W
Report Text: KCOE 282255Z AUTO 20016G24KT 10SM FEW041 BKN048 OVC060 11/04 A2934 RMK AO1
Loading
Personal Weather Stations






























Interactive Weather Map New forecast layout! Learn more

10-Day Weather Forecast

Advertisements
Track Severe Weather on mobile